KMCN/MCN METAR and TAF weather

Enter ICAO airport designator
Station Type Date Time Source
KMCN METAR 2019/02/18 03:53 UTC NOAA

KMCN 180353Z AUTO 12003KT 9SM OVC055 14/14 A2988 RMK AO2 RAE26 SLP117 P0008 T01440144


Station Type Date Time Source
KMCN Decoded METAR 2019/02/18 03:53 UTC NOAA

MIDDLE GEORGIA REGIONAL AIRPORT , GA, United States (KMCN) 32-41N 83-39W 109M
Feb 17, 2019 - 10:53 PM EST / 2019.02.18 0353 UTC
Wind: from the ESE (120 degrees) at 3 MPH (3 KT):0
Visibility: 9 mile(s):0
Sky conditions: overcast
Precipitation last hour: 0.08 inches
Temperature: 57.9 F (14.4 C)
Dew Point: 57.9 F (14.4 C)
Relative Humidity: 100%
Pressure (altimeter): 29.88 in. Hg (1011 hPa)
ob: KMCN 180353Z AUTO 12003KT 9SM OVC055 14/14 A2988 RMK AO2 RAE26 SLP117 P0008 T01440144
cycle: 4

Station Type Date Time Source
KMCN TAF 2019/02/17 18:48 UTC NOAA

TAF KMCN 171745Z 1718/1818 09006KT 1SM BR OVC003
FM172100 14008KT P6SM SCT010 BKN025
FM180400 19006KT 6SM -RA BR BKN008
FM180800 32009KT P6SM -RA BKN010
FM181200 32011KT P6SM SCT015 BKN050
FM181600 32013G22KT P6SM SCT040


Example: see airport list